Groton, CT

1:47 PM EDT on September 26, 2016 (GMT -0400)
Groton-New London

Weather History for KGON - February, 2013

Change the Weather History Date:

Sunday, February 24, 2013

  Actual Average Record
Temperature  
Mean Temperature 36 °F -  
Max Temperature 39 °F 42 °F 60 °F (1985)
Min Temperature 33 °F 25 °F 0 °F (2015)
Degree Days  
Heating Degree Days 29    
Moisture  
Dew Point 37 °F    
Average Humidity 99    
Maximum Humidity 100    
Minimum Humidity 93    
Precipitation  
Precipitation 0.00 in - - ()
Sea Level Pressure  
Sea Level Pressure 29.75 in    
Wind  
Wind Speed 13 mph (NNW)    
Max Wind Speed 20 mph    
Max Gust Speed 28 mph    
Visibility 5 miles    
Events Rain , Snow    
Averages and records for this station are not official NWS values.
T = Trace of Precipitation, MM = Missing Value Source: NWS Daily Summary

Daily Weather History Graph

Daily Weather History Graph

Search for Another Location

Airport or City:

Trip Planner

Search our weather history database for the weather conditions in past years. The results will help you decide how hot, cold, wet, or windy it might be!

Date:

Astronomy

Feb. 24, 2013 Rise Set
Actual Time 6:29 AM EST 5:33 PM EST
Civil Twilight 6:02 AM EST 6:01 PM EST
Nautical Twilight 5:30 AM EST 6:33 PM EST
Astronomical Twilight 4:58 AM EST 7:05 PM EST
Moon 4:41 PM EST (2/24) 5:25 AM EST (2/24)
Length of Visible Light 11h 59m
Length of Day
11h 03m
Waxing Gibbous, 99% of the Moon is Illuminated
Feb 24
Waxing Gibbous
Feb 25
Full
Mar 4
Last Quarter
Mar 11
New
Mar 19
First Quarter

Hourly Weather History & Observations

Time (EST) Temp. Windchill Dew Point Humidity Pressure Visibility Wind Dir Wind Speed Gust Speed Precip Events Conditions
12:56 AM 37.0 °F 28.5 °F 37.0 °F 100% 29.78 in 3.0 mi North 13.8 mph - 0.00 in Rain Light Rain
1:07 AM 37.4 °F 29.8 °F 37.4 °F 100% 29.78 in 2.5 mi NNE 11.5 mph - 0.00 in Rain Light Rain
1:15 AM 37.4 °F 30.3 °F 37.4 °F 100% 29.78 in 4.0 mi NNE 10.4 mph - 0.00 in Rain Light Rain
1:40 AM 37.4 °F 29.8 °F 37.4 °F 100% 29.77 in 2.0 mi North 11.5 mph - 0.00 in Rain Light Rain
1:56 AM 37.0 °F 29.3 °F 37.0 °F 100% 29.76 in 2.0 mi North 11.5 mph - 0.00 in Rain Light Rain
2:30 AM 37.4 °F 29.8 °F 37.4 °F 100% 29.74 in 3.0 mi North 11.5 mph - 0.00 in Rain Light Rain
2:56 AM 37.0 °F 28.9 °F 37.0 °F 100% 29.73 in 3.0 mi North 12.7 mph - 0.00 in   Overcast
3:12 AM 37.4 °F 30.3 °F 37.4 °F 100% 29.72 in 4.0 mi North 10.4 mph - N/A   Overcast
3:54 AM 35.6 °F 27.1 °F 35.6 °F 100% 29.71 in 3.0 mi North 12.7 mph - N/A   Overcast
3:56 AM 36.0 °F 27.5 °F 36.0 °F 100% 29.71 in 3.0 mi North 12.7 mph - N/A   Overcast
4:05 AM 35.6 °F 26.6 °F 35.6 °F 100% 29.71 in 2.5 mi North 13.8 mph - N/A   Overcast
4:18 AM 37.4 °F 30.3 °F 37.4 °F 100% 29.70 in 3.0 mi North 10.4 mph - 0.00 in Rain Light Rain
4:56 AM 37.0 °F 28.9 °F 37.0 °F 100% 29.71 in 3.0 mi North 12.7 mph - 0.00 in   Overcast
4:59 AM 37.4 °F 30.3 °F 37.4 °F 100% 29.72 in 3.0 mi North 10.4 mph - N/A   Overcast
5:14 AM 37.4 °F 28.5 °F 37.4 °F 100% 29.73 in 2.5 mi North 15.0 mph - N/A   Overcast
5:28 AM 37.4 °F 29.3 °F 37.4 °F 100% 29.73 in 2.5 mi North 12.7 mph - 0.00 in Rain Light Rain
5:56 AM 37.0 °F 28.5 °F 37.0 °F 100% 29.72 in 2.0 mi North 13.8 mph - 0.00 in   Overcast
6:05 AM 37.4 °F 28.9 °F 37.4 °F 100% 29.71 in 2.5 mi North 13.8 mph - 0.00 in Rain Light Rain
6:18 AM 37.4 °F 28.5 °F 37.4 °F 100% 29.71 in 3.0 mi North 15.0 mph 25.3 mph 0.00 in Rain Light Rain
6:56 AM 37.4 °F 28.2 °F 37.4 °F 100% 29.68 in 5.0 mi North 16.1 mph 27.6 mph N/A   Overcast
7:56 AM 37.0 °F 28.1 °F 37.0 °F 100% 29.68 in 5.0 mi North 15.0 mph 27.6 mph N/A   Overcast
8:36 AM 37.4 °F 28.5 °F 37.4 °F 100% 29.68 in 10.0 mi North 15.0 mph 24.2 mph N/A   Overcast
8:54 AM 37.4 °F 27.8 °F 37.4 °F 100% 29.69 in 7.0 mi North 17.3 mph 24.2 mph N/A   Overcast
8:56 AM 37.9 °F 29.6 °F 37.9 °F 100% 29.69 in 6.0 mi North 13.8 mph 24.2 mph N/A   Overcast
9:07 AM 37.4 °F 28.5 °F 37.4 °F 100% 29.68 in 6.0 mi NNW 15.0 mph - N/A   Overcast
9:56 AM 39.0 °F 29.6 °F 39.0 °F 100% 29.68 in 7.0 mi North 18.4 mph - 0.00 in   Overcast
10:07 AM 39.2 °F 30.8 °F 39.2 °F 100% 29.68 in 8.0 mi NNW 15.0 mph 21.9 mph N/A   Overcast
10:56 AM 39.0 °F 31.8 °F 39.0 °F 100% 29.68 in 4.0 mi North 11.5 mph - 0.00 in Rain Light Rain
11:07 AM 39.2 °F 30.8 °F 39.2 °F 100% 29.67 in 6.0 mi North 15.0 mph 21.9 mph 0.00 in Rain Light Rain
11:37 AM 39.2 °F 31.2 °F 39.2 °F 100% 29.67 in 7.0 mi NNW 13.8 mph - 0.00 in Rain Light Rain
11:56 AM 39.0 °F 29.9 °F 39.0 °F 100% 29.68 in 8.0 mi NNW 17.3 mph 24.2 mph 0.00 in Rain Light Rain
12:22 PM 39.2 °F 30.2 °F 39.2 °F 100% 29.67 in 2.5 mi North 17.3 mph 25.3 mph 0.00 in Rain Light Rain
12:30 PM 39.2 °F 29.6 °F 39.2 °F 100% 29.67 in 2.5 mi NNW 19.6 mph 25.3 mph 0.00 in Rain Light Rain
12:34 PM 39.2 °F 30.8 °F 39.2 °F 100% 29.67 in 3.0 mi NNW 15.0 mph 25.3 mph 0.00 in Rain Light Rain
12:56 PM 39.9 °F 30.5 °F 39.9 °F 100% 29.67 in 4.0 mi North 19.6 mph 26.5 mph 0.00 in   Overcast
1:22 PM 39.2 °F 30.8 °F 39.2 °F 100% 29.67 in 6.0 mi North 15.0 mph 19.6 mph 0.00 in Rain Light Rain
1:44 PM 39.2 °F 31.2 °F 39.2 °F 100% 29.67 in 6.0 mi North 13.8 mph 24.2 mph 0.00 in   Overcast
1:56 PM 39.9 °F 31.4 °F 39.0 °F 97% 29.67 in 4.0 mi North 16.1 mph - 0.00 in Rain Light Rain
2:27 PM 39.2 °F 31.2 °F 39.2 °F 100% 29.67 in 4.0 mi NNW 13.8 mph 23.0 mph 0.00 in   Overcast
2:56 PM 39.0 °F 29.3 °F 39.0 °F 100% 29.69 in 6.0 mi North 19.6 mph 24.2 mph 0.00 in   Overcast
3:19 PM 39.2 °F 31.6 °F 39.2 °F 100% 29.69 in 9.0 mi North 12.7 mph - N/A   Overcast
3:43 PM 39.2 °F 30.5 °F 37.4 °F 93% 29.71 in 10.0 mi NNW 16.1 mph 21.9 mph N/A   Overcast
3:56 PM 39.0 °F 30.6 °F 37.9 °F 96% 29.71 in 9.0 mi NNW 15.0 mph 20.7 mph N/A   Overcast
4:16 PM 39.2 °F 31.2 °F 37.4 °F 93% 29.71 in 10.0 mi North 13.8 mph 21.9 mph N/A   Overcast
4:56 PM 37.9 °F 29.6 °F 37.0 °F 97% 29.73 in 10.0 mi North 13.8 mph 19.6 mph 0.00 in   Overcast
5:56 PM 37.0 °F 29.8 °F 36.0 °F 96% 29.76 in 10.0 mi North 10.4 mph - N/A   Overcast
6:56 PM 37.0 °F 31.0 °F 37.0 °F 100% 29.81 in 8.0 mi NNW 8.1 mph - 0.00 in Rain Light Rain
7:56 PM 36.0 °F 29.0 °F 36.0 °F 100% 29.83 in 8.0 mi NW 9.2 mph - 0.00 in Rain Light Rain
8:35 PM 35.6 °F 28.6 °F 35.6 °F 100% 29.85 in 8.0 mi NW 9.2 mph - 0.00 in Rain Light Rain
8:56 PM 35.1 °F 27.4 °F 35.1 °F 100% 29.86 in 5.0 mi NW 10.4 mph - 0.00 in Snow Light Snow
9:09 PM 33.8 °F 27.0 °F 33.8 °F 100% 29.87 in 3.0 mi NW 8.1 mph - 0.00 in Snow Light Snow
9:18 PM 33.8 °F 26.4 °F 33.8 °F 100% 29.87 in 2.0 mi NW 9.2 mph - 0.00 in Snow Light Snow
9:22 PM 33.8 °F 27.0 °F 33.8 °F 100% 29.87 in 1.8 mi NW 8.1 mph - 0.00 in Snow Light Snow
9:33 PM 33.8 °F 27.0 °F 33.8 °F 100% 29.87 in 2.0 mi NW 8.1 mph - 0.00 in Snow Light Snow
9:40 PM 33.8 °F 27.0 °F 33.8 °F 100% 29.87 in 2.5 mi NW 8.1 mph - 0.00 in Snow Light Snow
9:56 PM 33.1 °F 26.9 °F 33.1 °F 100% 29.88 in 2.5 mi NW 6.9 mph - 0.00 in Snow Light Snow
10:07 PM 33.8 °F 27.7 °F 33.8 °F 100% 29.88 in 3.0 mi NW 6.9 mph - 0.00 in Snow Light Snow
10:56 PM 34.0 °F 28.0 °F 34.0 °F 100% 29.88 in 3.0 mi NW 6.9 mph - 0.00 in Snow Light Snow
11:03 PM 33.8 °F 27.7 °F 33.8 °F 100% 29.88 in 2.5 mi NW 6.9 mph - 0.00 in Snow Light Snow
11:12 PM 33.8 °F 27.0 °F 33.8 °F 100% 29.88 in 4.0 mi NNW 8.1 mph - 0.00 in Snow Light Snow
11:25 PM 33.8 °F 27.7 °F 33.8 °F 100% 29.89 in 6.0 mi NNW 6.9 mph - 0.00 in   Overcast
11:56 PM 34.0 °F 26.6 °F 33.1 °F 96% 29.90 in 7.0 mi NNW 9.2 mph - 0.00 in   Overcast